Time;durP1;ratioP1;P1;durP2;ratioP2;P2;SDS_P1;SDS_P2;PMS_P1;PMS_P2;Temp;Humidity;BMP_temperature;BMP_pressure;BME280_temperature;BME280_humidity;BME280_pressure;Samples;Min_cycle;Max_cycle;Signal;HPM_P1;HPM_P2
2022/07/20 00:02:21;;;;;;;7.30;3.40;;;;;;;;;;5023074;28;20230;-75
2022/07/20 00:04:48;;;;;;;3.80;3.00;;;;;;;;;;5021191;28;20187;-75
2022/07/20 00:07:15;;;;;;;4.97;2.97;;;;;;;;;;5025611;28;20985;-75
2022/07/20 00:12:26;;;;;;;3.60;3.17;;;;;;;;;;5026791;28;20206;-75
2022/07/20 00:14:52;;;;;;;4.10;3.33;;;;;;;;;;5032441;28;20175;-75
2022/07/20 00:17:18;;;;;;;5.83;3.27;;;;;;;;;;5034972;28;20178;-74
2022/07/20 00:19:44;;;;;;;3.73;3.30;;;;;;;;;;5026567;28;20542;-74
2022/07/20 00:22:11;;;;;;;4.77;3.30;;;;;;;;;;5029194;28;20206;-74
2022/07/20 00:24:37;;;;;;;5.47;2.97;;;;;;;;;;5031979;28;20265;-75
2022/07/20 00:27:03;;;;;;;4.53;3.10;;;;;;;;;;5033751;28;20179;-75
2022/07/20 00:29:30;;;;;;;4.20;3.20;;;;;;;;;;5029245;28;20233;-76
2022/07/20 00:31:56;;;;;;;4.10;3.13;;;;;;;;;;5029013;28;20208;-75
2022/07/20 00:34:22;;;;;;;7.40;3.30;;;;;;;;;;5025919;28;20308;-75
2022/07/20 00:36:48;;;;;;;4.40;3.50;;;;;;;;;;5030370;28;20185;-75
2022/07/20 00:39:14;;;;;;;5.37;3.60;;;;;;;;;;5032906;28;20180;-75
2022/07/20 00:41:41;;;;;;;4.53;3.10;;;;;;;;;;5029606;28;20640;-75
2022/07/20 00:44:08;;;;;;;3.80;3.20;;;;;;;;;;5029718;28;20182;-75
2022/07/20 00:46:35;;;;;;;4.47;3.63;;;;;;;;;;5029120;28;20602;-75
2022/07/20 00:49:02;;;;;;;5.40;3.40;;;;;;;;;;5028362;28;20551;-75
2022/07/20 00:51:28;;;;;;;5.00;3.33;;;;;;;;;;5032626;28;20218;-74
2022/07/20 00:53:55;;;;;;;5.97;3.80;;;;;;;;;;5037345;28;20611;-75
2022/07/20 00:56:21;;;;;;;6.20;3.57;;;;;;;;;;5028092;28;20621;-75
2022/07/20 00:58:47;;;;;;;5.20;3.50;;;;;;;;;;5033236;28;20197;-75
2022/07/20 01:01:14;;;;;;;6.67;3.83;;;;;;;;;;5027538;28;20324;-74
2022/07/20 01:03:41;;;;;;;4.50;3.87;;;;;;;;;;5028365;28;20187;-75
2022/07/20 01:06:08;;;;;;;5.07;4.20;;;;;;;;;;5025506;28;20186;-73
2022/07/20 01:08:34;;;;;;;5.63;3.97;;;;;;;;;;5023401;28;20311;-74
2022/07/20 01:11:01;;;;;;;5.23;4.00;;;;;;;;;;5021205;28;20546;-75
2022/07/20 01:13:27;;;;;;;7.60;3.93;;;;;;;;;;5026697;28;20716;-75
2022/07/20 01:15:54;;;;;;;5.80;3.57;;;;;;;;;;5026655;28;20203;-75
2022/07/20 01:18:20;;;;;;;4.13;3.40;;;;;;;;;;5024814;28;20196;-75
2022/07/20 01:20:47;;;;;;;5.10;3.70;;;;;;;;;;5026636;28;20183;-75
2022/07/20 01:23:14;;;;;;;7.27;3.70;;;;;;;;;;5029191;28;20237;-75
2022/07/20 01:25:40;;;;;;;5.53;3.60;;;;;;;;;;5031506;28;20185;-75
2022/07/20 01:28:07;;;;;;;6.87;3.90;;;;;;;;;;5028172;28;20218;-75
2022/07/20 01:30:33;;;;;;;4.37;3.97;;;;;;;;;;5033280;28;20178;-75
2022/07/20 01:32:59;;;;;;;4.90;3.93;;;;;;;;;;5026852;28;20222;-75
2022/07/20 01:35:26;;;;;;;4.40;3.90;;;;;;;;;;5026414;28;20240;-75
2022/07/20 01:37:52;;;;;;;7.37;3.67;;;;;;;;;;5031208;28;20232;-75
2022/07/20 01:40:18;;;;;;;6.73;4.23;;;;;;;;;;5028581;28;20625;-75
2022/07/20 01:42:44;;;;;;;4.37;3.80;;;;;;;;;;5023663;28;21417;-75
2022/07/20 01:45:11;;;;;;;6.83;4.00;;;;;;;;;;5027362;28;20200;-73
2022/07/20 01:47:37;;;;;;;5.37;3.70;;;;;;;;;;5028677;28;20265;-75
2022/07/20 01:50:03;;;;;;;5.00;3.70;;;;;;;;;;5022084;28;20187;-75
2022/07/20 01:52:29;;;;;;;4.87;4.20;;;;;;;;;;5030638;28;20229;-75
2022/07/20 01:54:56;;;;;;;4.37;3.83;;;;;;;;;;5022495;28;20246;-73
2022/07/20 01:57:22;;;;;;;6.93;4.07;;;;;;;;;;5025052;28;20192;-73
2022/07/20 01:59:48;;;;;;;5.40;3.70;;;;;;;;;;5021988;28;20233;-75
2022/07/20 02:02:14;;;;;;;4.40;3.70;;;;;;;;;;5023630;28;20205;-75
2022/07/20 02:04:40;;;;;;;4.00;3.43;;;;;;;;;;5023709;28;20194;-75
2022/07/20 02:07:06;;;;;;;5.40;3.40;;;;;;;;;;5027728;28;20183;-75
2022/07/20 02:09:33;;;;;;;5.00;3.67;;;;;;;;;;5025213;28;20675;-75
2022/07/20 02:11:59;;;;;;;6.53;3.80;;;;;;;;;;5022129;28;20339;-74
2022/07/20 02:14:26;;;;;;;4.63;3.93;;;;;;;;;;5024807;28;20207;-75
2022/07/20 02:16:52;;;;;;;5.13;3.83;;;;;;;;;;5027463;28;20175;-75
2022/07/20 02:19:18;;;;;;;5.20;3.70;;;;;;;;;;5027826;28;20185;-75
2022/07/20 02:21:44;;;;;;;5.60;3.57;;;;;;;;;;5026847;28;20667;-75
2022/07/20 02:24:10;;;;;;;5.07;3.80;;;;;;;;;;5030424;28;20256;-75
2022/07/20 02:26:37;;;;;;;4.57;3.60;;;;;;;;;;5028642;28;20178;-74
2022/07/20 02:29:03;;;;;;;3.90;3.50;;;;;;;;;;5029121;28;20208;-75
2022/07/20 02:31:29;;;;;;;5.40;3.90;;;;;;;;;;5026754;28;20273;-75
2022/07/20 02:33:55;;;;;;;4.80;3.60;;;;;;;;;;5026909;28;20186;-74
2022/07/20 02:36:21;;;;;;;5.23;3.70;;;;;;;;;;5029591;28;20186;-75
2022/07/20 02:38:48;;;;;;;7.43;4.03;;;;;;;;;;5028420;28;20626;-75
2022/07/20 02:41:14;;;;;;;6.13;3.90;;;;;;;;;;5025899;28;20214;-75
2022/07/20 02:43:40;;;;;;;6.63;4.07;;;;;;;;;;5022772;28;20182;-75
2022/07/20 02:46:06;;;;;;;5.57;3.80;;;;;;;;;;5027420;28;20202;-75
2022/07/20 02:48:33;;;;;;;4.77;3.70;;;;;;;;;;5027596;28;20300;-75
2022/07/20 02:50:59;;;;;;;5.33;3.63;;;;;;;;;;5028277;28;20190;-74
2022/07/20 02:53:26;;;;;;;4.97;3.47;;;;;;;;;;5027155;28;20182;-74
2022/07/20 02:55:52;;;;;;;5.03;3.80;;;;;;;;;;5033013;28;20177;-75
2022/07/20 02:58:18;;;;;;;5.70;3.33;;;;;;;;;;5028833;28;20214;-75
2022/07/20 03:00:44;;;;;;;4.90;3.47;;;;;;;;;;5028884;28;20717;-75
2022/07/20 03:03:11;;;;;;;4.37;3.20;;;;;;;;;;5031957;28;20198;-75
2022/07/20 03:05:37;;;;;;;3.53;3.23;;;;;;;;;;5029428;28;20187;-75
2022/07/20 03:08:08;;;;;;;3.73;3.40;;;;;;;;;;5030898;28;20202;-75
2022/07/20 03:10:34;;;;;;;4.63;3.50;;;;;;;;;;5036528;28;20203;-75
2022/07/20 03:13:00;;;;;;;8.70;3.80;;;;;;;;;;5027937;28;20257;-75
2022/07/20 03:15:27;;;;;;;5.27;3.63;;;;;;;;;;5027427;28;20742;-74
2022/07/20 03:17:54;;;;;;;4.73;3.50;;;;;;;;;;5030861;28;20252;-75
2022/07/20 03:20:21;;;;;;;3.67;3.27;;;;;;;;;;5034937;28;20183;-75
2022/07/20 03:22:48;;;;;;;5.90;3.70;;;;;;;;;;5033325;28;20544;-75
2022/07/20 03:25:14;;;;;;;4.93;3.43;;;;;;;;;;5028039;28;20221;-73
2022/07/20 03:27:40;;;;;;;6.83;3.80;;;;;;;;;;5031898;28;20196;-75
2022/07/20 03:30:07;;;;;;;5.33;3.70;;;;;;;;;;5031080;28;20209;-75
2022/07/20 03:32:33;;;;;;;5.03;3.70;;;;;;;;;;5029424;28;20764;-75
2022/07/20 03:35:00;;;;;;;4.17;3.67;;;;;;;;;;5026231;28;20217;-74
2022/07/20 03:37:26;;;;;;;4.90;3.73;;;;;;;;;;5028076;28;20582;-75
2022/07/20 03:39:52;;;;;;;5.20;3.80;;;;;;;;;;5025724;28;20182;-75
2022/07/20 03:42:19;;;;;;;6.60;3.60;;;;;;;;;;5026076;28;20550;-75
2022/07/20 03:44:45;;;;;;;5.60;3.90;;;;;;;;;;5025113;28;20201;-75
2022/07/20 03:47:11;;;;;;;6.17;3.77;;;;;;;;;;5029267;28;20197;-75
2022/07/20 03:49:37;;;;;;;4.87;3.97;;;;;;;;;;5030082;28;20202;-75
2022/07/20 03:52:03;;;;;;;3.80;3.50;;;;;;;;;;5031377;28;20958;-75
2022/07/20 03:54:30;;;;;;;5.80;3.70;;;;;;;;;;5027617;28;20643;-74
2022/07/20 03:56:56;;;;;;;8.53;4.00;;;;;;;;;;5034185;28;20261;-75
2022/07/20 03:59:22;;;;;;;5.53;3.47;;;;;;;;;;5028586;28;20271;-74
2022/07/20 04:01:49;;;;;;;8.63;3.77;;;;;;;;;;5028407;28;20686;-74
2022/07/20 04:04:15;;;;;;;6.57;4.00;;;;;;;;;;5027220;28;20186;-75
2022/07/20 04:06:41;;;;;;;6.03;3.50;;;;;;;;;;5032718;28;20182;-75
2022/07/20 04:09:07;;;;;;;6.73;4.03;;;;;;;;;;5032241;28;20212;-75
2022/07/20 04:11:33;;;;;;;5.23;3.73;;;;;;;;;;5032599;28;20219;-75
2022/07/20 04:13:59;;;;;;;4.37;3.80;;;;;;;;;;5030663;28;20676;-75
2022/07/20 04:16:25;;;;;;;6.33;4.10;;;;;;;;;;5031118;28;20266;-74
2022/07/20 04:18:52;;;;;;;5.43;3.93;;;;;;;;;;5030990;28;20269;-75
2022/07/20 04:21:18;;;;;;;9.23;4.30;;;;;;;;;;5029650;28;20221;-75
2022/07/20 04:23:44;;;;;;;4.30;3.80;;;;;;;;;;5029931;28;20198;-75
2022/07/20 04:26:11;;;;;;;5.87;4.07;;;;;;;;;;5031603;28;20195;-75
2022/07/20 04:28:37;;;;;;;7.93;3.87;;;;;;;;;;5025176;28;20207;-74
2022/07/20 04:31:03;;;;;;;7.33;4.40;;;;;;;;;;5030689;28;20210;-74
2022/07/20 04:33:29;;;;;;;8.53;4.40;;;;;;;;;;5030613;28;20186;-74
2022/07/20 04:35:55;;;;;;;6.07;4.20;;;;;;;;;;5032867;28;20190;-74
2022/07/20 04:38:21;;;;;;;6.17;4.20;;;;;;;;;;5033775;28;20178;-74
2022/07/20 04:40:48;;;;;;;6.07;4.40;;;;;;;;;;5035086;28;20175;-75
2022/07/20 04:43:14;;;;;;;6.37;3.93;;;;;;;;;;5030028;28;20211;-74
2022/07/20 04:45:40;;;;;;;4.97;3.83;;;;;;;;;;5033736;28;20186;-75
2022/07/20 04:48:06;;;;;;;5.60;4.07;;;;;;;;;;5030486;28;20222;-75
2022/07/20 04:50:33;;;;;;;7.30;4.07;;;;;;;;;;5027163;28;20577;-75
2022/07/20 04:52:59;;;;;;;5.80;3.87;;;;;;;;;;5028641;28;20210;-75
2022/07/20 04:55:25;;;;;;;5.77;4.10;;;;;;;;;;5031692;28;20320;-75
2022/07/20 04:57:51;;;;;;;6.87;4.30;;;;;;;;;;5028161;28;20184;-75
2022/07/20 05:00:17;;;;;;;6.83;4.20;;;;;;;;;;5028077;28;20174;-75
2022/07/20 05:02:43;;;;;;;8.03;4.40;;;;;;;;;;5027999;28;20758;-75
2022/07/20 05:05:10;;;;;;;4.73;3.90;;;;;;;;;;5030851;28;20553;-75
2022/07/20 05:07:36;;;;;;;5.40;4.30;;;;;;;;;;5028145;28;20200;-73
2022/07/20 05:10:02;;;;;;;6.57;4.80;;;;;;;;;;5037852;28;20202;-74
2022/07/20 05:12:28;;;;;;;7.03;4.47;;;;;;;;;;5033355;28;20195;-74
2022/07/20 05:14:55;;;;;;;8.13;4.60;;;;;;;;;;5032721;28;20216;-74
2022/07/20 05:17:21;;;;;;;8.53;4.47;;;;;;;;;;5026262;28;20214;-74
2022/07/20 05:19:47;;;;;;;5.47;4.40;;;;;;;;;;5028407;28;20190;-75
2022/07/20 05:22:15;;;;;;;6.03;4.63;;;;;;;;;;5030332;28;20241;-74
2022/07/20 05:24:41;;;;;;;5.60;4.20;;;;;;;;;;5021888;28;20225;-75
2022/07/20 05:27:07;;;;;;;6.50;4.30;;;;;;;;;;5026203;28;20215;-74
2022/07/20 05:29:33;;;;;;;6.33;4.10;;;;;;;;;;5027546;28;20205;-73
2022/07/20 05:31:59;;;;;;;8.23;4.60;;;;;;;;;;5025537;28;20219;-74
2022/07/20 05:34:26;;;;;;;6.77;4.50;;;;;;;;;;5028691;28;20187;-76
2022/07/20 05:36:52;;;;;;;6.87;4.73;;;;;;;;;;5026611;28;20183;-76
2022/07/20 05:39:18;;;;;;;8.50;5.20;;;;;;;;;;5027104;28;20186;-76
2022/07/20 05:41:45;;;;;;;6.57;4.60;;;;;;;;;;5027496;28;20634;-77
2022/07/20 05:44:11;;;;;;;6.53;4.57;;;;;;;;;;5027390;28;20191;-73
2022/07/20 05:46:37;;;;;;;6.90;4.10;;;;;;;;;;5029463;28;20196;-77
2022/07/20 05:49:03;;;;;;;9.33;4.60;;;;;;;;;;5024302;28;20222;-77
2022/07/20 05:51:29;;;;;;;8.67;4.90;;;;;;;;;;5026996;28;20293;-75
2022/07/20 05:53:55;;;;;;;5.60;4.33;;;;;;;;;;5025804;28;20306;-74
2022/07/20 05:56:22;;;;;;;11.77;4.87;;;;;;;;;;5029876;28;20179;-73
2022/07/20 05:58:48;;;;;;;6.23;4.53;;;;;;;;;;5025999;28;20202;-73
2022/07/20 06:01:14;;;;;;;9.13;4.83;;;;;;;;;;5024620;28;20221;-73
2022/07/20 06:03:40;;;;;;;8.97;5.00;;;;;;;;;;5029281;28;20283;-73
2022/07/20 06:06:06;;;;;;;9.90;5.00;;;;;;;;;;5029192;28;20613;-73
2022/07/20 06:08:32;;;;;;;10.77;5.03;;;;;;;;;;5023599;28;20655;-73
2022/07/20 06:10:59;;;;;;;9.63;5.07;;;;;;;;;;5026529;28;20260;-75
2022/07/20 06:13:25;;;;;;;7.43;4.47;;;;;;;;;;5038676;28;20319;-75
2022/07/20 06:15:51;;;;;;;9.90;4.50;;;;;;;;;;5027612;28;20590;-74
2022/07/20 06:18:18;;;;;;;6.63;4.50;;;;;;;;;;5028790;28;20178;-74
2022/07/20 06:20:44;;;;;;;9.23;4.40;;;;;;;;;;5022562;28;20713;-74
2022/07/20 06:23:10;;;;;;;7.47;4.63;;;;;;;;;;5027271;28;20220;-74
2022/07/20 06:25:36;;;;;;;7.87;4.43;;;;;;;;;;5023813;28;20184;-73
2022/07/20 06:28:03;;;;;;;5.40;3.77;;;;;;;;;;5024264;28;20265;-73
2022/07/20 06:30:29;;;;;;;6.13;4.30;;;;;;;;;;5021442;28;20245;-74
2022/07/20 06:32:55;;;;;;;6.63;3.93;;;;;;;;;;5025367;28;20294;-74
2022/07/20 06:35:21;;;;;;;8.87;3.77;;;;;;;;;;5028568;28;20188;-73
2022/07/20 06:37:47;;;;;;;8.27;4.50;;;;;;;;;;5027986;28;20184;-74
2022/07/20 06:40:14;;;;;;;7.13;4.47;;;;;;;;;;5026651;28;20178;-72
2022/07/20 06:42:40;;;;;;;7.07;4.70;;;;;;;;;;5022236;28;20234;-72
2022/07/20 06:45:06;;;;;;;7.50;4.30;;;;;;;;;;5020622;28;20186;-74
2022/07/20 06:47:33;;;;;;;10.03;4.40;;;;;;;;;;5025863;28;20187;-74
2022/07/20 06:49:59;;;;;;;6.23;4.83;;;;;;;;;;5024947;28;20296;-74
2022/07/20 06:52:25;;;;;;;7.83;4.50;;;;;;;;;;5022991;28;20245;-74
2022/07/20 06:54:51;;;;;;;6.37;4.70;;;;;;;;;;5024196;28;20267;-74
2022/07/20 06:57:18;;;;;;;6.53;4.40;;;;;;;;;;5025032;28;20183;-73
2022/07/20 06:59:44;;;;;;;7.30;4.60;;;;;;;;;;5025483;28;20187;-73
2022/07/20 07:02:10;;;;;;;5.47;4.30;;;;;;;;;;5023846;28;20264;-72
2022/07/20 07:04:37;;;;;;;6.97;4.00;;;;;;;;;;5020722;28;20180;-73
2022/07/20 07:07:03;;;;;;;6.10;4.50;;;;;;;;;;5024396;28;20187;-72
2022/07/20 07:09:29;;;;;;;6.57;4.40;;;;;;;;;;5022474;28;20214;-73
2022/07/20 07:11:56;;;;;;;7.80;4.33;;;;;;;;;;5026616;28;20202;-73
2022/07/20 07:14:22;;;;;;;8.83;4.53;;;;;;;;;;5020454;28;20215;-73
2022/07/20 07:16:48;;;;;;;5.90;4.60;;;;;;;;;;5020637;28;20706;-73
2022/07/20 07:19:14;;;;;;;9.20;4.97;;;;;;;;;;5023007;28;20208;-72
2022/07/20 07:21:40;;;;;;;11.03;4.40;;;;;;;;;;5027210;28;20978;-73
2022/07/20 07:24:06;;;;;;;5.67;4.30;;;;;;;;;;5026193;28;20200;-72
2022/07/20 07:26:32;;;;;;;7.90;4.80;;;;;;;;;;5022269;28;20247;-73
2022/07/20 07:28:59;;;;;;;6.90;4.20;;;;;;;;;;5023529;28;20202;-73
2022/07/20 07:31:25;;;;;;;5.57;4.30;;;;;;;;;;5025296;28;20205;-74
2022/07/20 07:33:51;;;;;;;5.80;4.23;;;;;;;;;;5022024;28;20192;-74
2022/07/20 07:36:17;;;;;;;6.63;4.00;;;;;;;;;;5026060;28;20192;-74
2022/07/20 07:38:44;;;;;;;6.03;4.63;;;;;;;;;;5026188;28;20193;-73
2022/07/20 07:41:10;;;;;;;4.60;4.10;;;;;;;;;;5022891;28;20182;-72
2022/07/20 07:43:36;;;;;;;5.67;4.37;;;;;;;;;;5022058;28;20198;-73
2022/07/20 07:46:02;;;;;;;5.77;4.30;;;;;;;;;;5023975;28;20197;-73
2022/07/20 07:48:28;;;;;;;6.17;4.47;;;;;;;;;;5026041;28;20210;-76
2022/07/20 07:50:55;;;;;;;8.57;4.50;;;;;;;;;;5025529;28;20186;-74
2022/07/20 07:53:21;;;;;;;9.50;4.40;;;;;;;;;;5024471;28;20269;-75
2022/07/20 07:55:47;;;;;;;6.27;4.40;;;;;;;;;;5025929;28;20213;-76
2022/07/20 07:58:13;;;;;;;5.37;4.43;;;;;;;;;;5021470;28;20182;-76
2022/07/20 08:00:40;;;;;;;5.13;4.03;;;;;;;;;;5025378;28;20190;-75
2022/07/20 08:03:06;;;;;;;7.90;4.40;;;;;;;;;;5024669;28;20237;-75
2022/07/20 08:05:33;;;;;;;7.93;4.60;;;;;;;;;;5021618;28;20868;-76
2022/07/20 08:08:05;;;;;;;7.00;4.80;;;;;;;;;;5026529;28;20190;-74
2022/07/20 08:10:32;;;;;;;5.77;4.20;;;;;;;;;;5024094;28;20672;-75
2022/07/20 08:12:58;;;;;;;5.83;4.20;;;;;;;;;;5020711;28;20214;-75
2022/07/20 08:15:24;;;;;;;5.63;4.00;;;;;;;;;;5023738;28;20212;-75
2022/07/20 08:17:50;;;;;;;7.60;4.63;;;;;;;;;;5027416;28;20237;-75
2022/07/20 08:20:21;;;;;;;6.77;4.00;;;;;;;;;;5021267;28;20175;-76
2022/07/20 08:22:48;;;;;;;7.90;4.53;;;;;;;;;;5029484;28;20209;-75
2022/07/20 08:25:14;;;;;;;7.03;4.40;;;;;;;;;;5025524;28;20240;-77
2022/07/20 08:27:40;;;;;;;7.63;4.77;;;;;;;;;;5022409;28;20262;-77
2022/07/20 08:30:07;;;;;;;4.80;4.33;;;;;;;;;;5026364;28;20203;-76
2022/07/20 08:32:33;;;;;;;5.90;4.17;;;;;;;;;;5021309;28;20677;-78
2022/07/20 08:34:59;;;;;;;8.23;4.47;;;;;;;;;;5029342;28;20164;-78
2022/07/20 08:37:25;;;;;;;7.00;4.50;;;;;;;;;;5030956;28;20175;-75
2022/07/20 08:39:52;;;;;;;6.53;4.70;;;;;;;;;;5026120;28;20186;-75
2022/07/20 08:42:18;;;;;;;5.77;4.57;;;;;;;;;;5029096;28;20213;-76
2022/07/20 08:44:45;;;;;;;7.73;4.37;;;;;;;;;;5030931;28;20190;-76
2022/07/20 08:47:12;;;;;;;8.53;4.20;;;;;;;;;;5035986;28;20194;-75
2022/07/20 08:49:38;;;;;;;6.07;4.20;;;;;;;;;;5026197;28;20201;-76
2022/07/20 08:52:05;;;;;;;9.23;4.50;;;;;;;;;;5034233;28;20225;-76
2022/07/20 08:54:32;;;;;;;7.67;4.20;;;;;;;;;;5029044;28;20262;-76
2022/07/20 08:56:58;;;;;;;10.30;4.70;;;;;;;;;;5030049;28;20190;-76
2022/07/20 08:59:24;;;;;;;8.93;4.30;;;;;;;;;;5028764;28;20675;-76
2022/07/20 09:02:04;;;;;;;7.10;4.47;;;;;;;;;;5031650;28;20737;-76
2022/07/20 09:04:30;;;;;;;10.63;4.77;;;;;;;;;;5031167;28;20195;-75
2022/07/20 09:06:57;;;;;;;7.13;4.07;;;;;;;;;;5028791;28;20404;-76
2022/07/20 09:09:23;;;;;;;7.20;4.57;;;;;;;;;;5036225;28;20218;-76
2022/07/20 09:11:50;;;;;;;5.70;4.13;;;;;;;;;;5023834;28;20218;-76
2022/07/20 09:14:36;;;;;;;7.00;4.10;;;;;;;;;;5026957;28;20183;-76
2022/07/20 09:17:13;;;;;;;6.77;4.70;;;;;;;;;;5025685;28;20252;-76
2022/07/20 09:19:58;;;;;;;6.87;4.70;;;;;;;;;;5032817;28;20261;-76
2022/07/20 09:22:35;;;;;;;7.37;4.80;;;;;;;;;;5031121;28;20282;-76
2022/07/20 09:25:11;;;;;;;8.23;5.00;;;;;;;;;;5030588;28;20226;-76
2022/07/20 09:27:38;;;;;;;5.50;5.00;;;;;;;;;;5025150;28;20283;-74
2022/07/20 09:30:10;;;;;;;8.63;4.87;;;;;;;;;;5026056;28;20619;-75
2022/07/20 09:32:49;;;;;;;5.10;4.60;;;;;;;;;;5025029;28;20693;-75
2022/07/20 09:35:16;;;;;;;9.40;5.37;;;;;;;;;;5027585;28;20174;-75
2022/07/20 09:37:42;;;;;;;5.67;5.00;;;;;;;;;;5025398;28;20287;-74
2022/07/20 09:40:08;;;;;;;5.67;5.00;;;;;;;;;;5027539;28;20773;-75
2022/07/20 09:42:41;;;;;;;7.50;4.80;;;;;;;;;;5025499;28;20210;-75
2022/07/20 09:45:22;;;;;;;5.83;4.83;;;;;;;;;;5025473;28;20187;-74
2022/07/20 09:48:01;;;;;;;9.20;5.00;;;;;;;;;;5025404;28;20257;-75
2022/07/20 09:50:29;;;;;;;8.23;5.37;;;;;;;;;;5026658;28;20662;-75
2022/07/20 09:52:56;;;;;;;5.87;5.00;;;;;;;;;;5023198;28;21072;-75
2022/07/20 09:55:22;;;;;;;7.87;5.00;;;;;;;;;;5026796;28;20632;-75
2022/07/20 09:57:51;;;;;;;7.27;4.90;;;;;;;;;;5025159;28;20721;-75
2022/07/20 10:00:17;;;;;;;7.70;4.57;;;;;;;;;;5021792;28;20190;-74
2022/07/20 10:02:50;;;;;;;5.63;4.83;;;;;;;;;;5023780;28;20662;-75
2022/07/20 10:05:18;;;;;;;5.93;4.70;;;;;;;;;;5028162;28;20530;-75
2022/07/20 10:07:45;;;;;;;7.03;4.90;;;;;;;;;;5025680;28;20752;-75
2022/07/20 10:10:11;;;;;;;9.50;5.17;;;;;;;;;;5027124;28;20209;-75
2022/07/20 10:12:38;;;;;;;5.37;4.53;;;;;;;;;;5028723;28;20260;-75
2022/07/20 10:15:10;;;;;;;5.10;4.60;;;;;;;;;;5026444;28;20187;-75
2022/07/20 10:17:38;;;;;;;6.73;5.00;;;;;;;;;;5026029;28;20522;-74
2022/07/20 10:20:07;;;;;;;7.33;4.97;;;;;;;;;;5025514;28;20240;-81
2022/07/20 10:22:33;;;;;;;8.13;4.90;;;;;;;;;;5025890;28;20202;-75
2022/07/20 10:25:16;;;;;;;12.60;5.47;;;;;;;;;;5022898;28;20270;-76
2022/07/20 10:27:42;;;;;;;8.37;4.53;;;;;;;;;;5026314;28;20206;-76
2022/07/20 10:30:15;;;;;;;5.40;4.80;;;;;;;;;;5021695;28;20270;-76
2022/07/20 10:32:51;;;;;;;7.50;4.90;;;;;;;;;;5023310;28;20293;-76
2022/07/20 10:35:28;;;;;;;6.73;5.30;;;;;;;;;;5026564;28;20175;-76
2022/07/20 10:37:56;;;;;;;6.33;5.17;;;;;;;;;;5027755;28;20697;-75
2022/07/20 10:40:22;;;;;;;7.97;5.20;;;;;;;;;;5023067;28;20216;-75
2022/07/20 10:42:49;;;;;;;8.10;4.93;;;;;;;;;;5024663;28;20288;-76
2022/07/20 10:45:19;;;;;;;8.60;5.00;;;;;;;;;;5023697;28;20265;-77
2022/07/20 10:47:47;;;;;;;6.03;5.00;;;;;;;;;;5023970;28;20186;-77
2022/07/20 10:50:20;;;;;;;11.63;5.53;;;;;;;;;;5023849;28;20211;-85
2022/07/20 10:52:47;;;;;;;5.13;4.60;;;;;;;;;;5026617;28;20217;-79
2022/07/20 10:55:34;;;;;;;6.13;5.07;;;;;;;;;;5008888;28;20187;-78
2022/07/20 10:58:01;;;;;;;9.23;5.80;;;;;;;;;;5023704;28;20289;-78
2022/07/20 11:00:31;;;;;;;7.23;5.17;;;;;;;;;;5026518;28;20182;-81
2022/07/20 11:03:01;;;;;;;7.17;5.50;;;;;;;;;;5028687;28;20196;-81
2022/07/20 11:05:27;;;;;;;7.77;6.07;;;;;;;;;;5025086;28;20668;-77
2022/07/20 11:07:54;;;;;;;8.87;5.20;;;;;;;;;;5027683;28;20191;-79
2022/07/20 11:10:22;;;;;;;7.47;5.50;;;;;;;;;;5034787;28;20189;-80
2022/07/20 11:12:55;;;;;;;5.67;5.17;;;;;;;;;;5034057;28;20335;-80
2022/07/20 11:15:22;;;;;;;7.37;5.30;;;;;;;;;;5032405;28;20185;-79
2022/07/20 11:17:48;;;;;;;8.93;5.60;;;;;;;;;;5028223;28;20181;-79
2022/07/20 11:20:17;;;;;;;9.27;5.37;;;;;;;;;;5024995;28;20394;-79
2022/07/20 11:22:44;;;;;;;9.17;5.30;;;;;;;;;;5024815;28;20240;-78
2022/07/20 11:25:10;;;;;;;6.07;5.47;;;;;;;;;;5027741;28;20254;-79
2022/07/20 11:27:37;;;;;;;8.60;6.10;;;;;;;;;;5030734;28;20201;-79
2022/07/20 11:30:03;;;;;;;7.27;6.07;;;;;;;;;;5027008;28;20202;-79
2022/07/20 11:32:29;;;;;;;6.70;5.63;;;;;;;;;;5029870;28;20206;-81
2022/07/20 11:34:57;;;;;;;7.47;5.43;;;;;;;;;;5032193;28;20182;-80
2022/07/20 11:37:25;;;;;;;7.60;5.90;;;;;;;;;;5030410;28;20186;-80
2022/07/20 11:39:51;;;;;;;7.97;5.87;;;;;;;;;;5035536;28;20197;-81
2022/07/20 11:42:18;;;;;;;9.83;6.40;;;;;;;;;;5031789;28;20263;-80
2022/07/20 11:45:00;;;;;;;11.17;6.47;;;;;;;;;;5029772;28;20198;-77
2022/07/20 11:47:27;;;;;;;10.03;5.93;;;;;;;;;;5021681;28;21010;-77
2022/07/20 11:50:05;;;;;;;7.13;6.40;;;;;;;;;;5028824;28;20294;-78
2022/07/20 11:52:42;;;;;;;11.00;6.30;;;;;;;;;;5024018;28;20358;-76
2022/07/20 11:55:17;;;;;;;8.00;6.27;;;;;;;;;;5023617;28;20267;-78
2022/07/20 11:57:53;;;;;;;6.50;5.90;;;;;;;;;;5022900;28;20189;-82
2022/07/20 12:00:28;;;;;;;8.23;6.47;;;;;;;;;;5023710;28;20710;-77
2022/07/20 12:03:03;;;;;;;6.97;6.00;;;;;;;;;;5023165;28;20685;-77
2022/07/20 12:05:32;;;;;;;8.60;6.37;;;;;;;;;;5026064;28;20558;-76
2022/07/20 12:08:11;;;;;;;10.73;6.33;;;;;;;;;;5024719;28;20201;-77
2022/07/20 12:10:37;;;;;;;8.63;6.07;;;;;;;;;;5030434;28;21805;-77
2022/07/20 12:13:08;;;;;;;7.80;6.17;;;;;;;;;;5031846;28;20192;-77
2022/07/20 12:15:55;;;;;;;8.00;5.80;;;;;;;;;;5028724;28;20185;-78
2022/07/20 12:18:32;;;;;;;7.83;6.07;;;;;;;;;;5025329;28;20179;-78
2022/07/20 12:20:59;;;;;;;6.87;6.17;;;;;;;;;;5029053;28;20193;-77
2022/07/20 12:23:26;;;;;;;7.50;6.43;;;;;;;;;;5032075;28;20193;-78
2022/07/20 12:25:52;;;;;;;7.83;5.67;;;;;;;;;;5028710;28;20178;-77
2022/07/20 12:28:29;;;;;;;9.90;6.10;;;;;;;;;;5028581;28;20205;-78
2022/07/20 12:31:08;;;;;;;6.97;5.47;;;;;;;;;;5028712;28;20681;-78
2022/07/20 12:33:34;;;;;;;8.45;6.18;;;;;;;;;;5027427;28;20656;-77
2022/07/20 12:36:06;;;;;;;10.25;6.25;;;;;;;;;;5032631;28;20187;-78
2022/07/20 12:38:33;;;;;;;8.45;6.00;;;;;;;;;;5026808;28;20193;-78
2022/07/20 12:41:10;;;;;;;8.02;6.75;;;;;;;;;;5029691;28;20190;-78
2022/07/20 12:43:40;;;;;;;7.63;6.60;;;;;;;;;;5024515;28;20196;-77
2022/07/20 12:46:13;;;;;;;9.60;6.57;;;;;;;;;;5034427;28;20334;-77
2022/07/20 12:48:41;;;;;;;10.30;5.95;;;;;;;;;;5031682;28;20292;-78
2022/07/20 12:51:08;;;;;;;7.60;6.65;;;;;;;;;;5029478;28;20174;-78
2022/07/20 12:53:35;;;;;;;8.00;7.20;;;;;;;;;;5030182;28;20205;-78
2022/07/20 12:56:01;;;;;;;9.13;7.20;;;;;;;;;;5029103;28;20608;-77
2022/07/20 12:58:28;;;;;;;7.95;6.85;;;;;;;;;;5024651;28;20190;-78
2022/07/20 13:00:54;;;;;;;9.73;7.00;;;;;;;;;;5027505;28;20189;-78
2022/07/20 13:03:20;;;;;;;9.13;7.57;;;;;;;;;;5030700;28;20609;-77
2022/07/20 13:05:46;;;;;;;8.00;7.20;;;;;;;;;;5028803;28;20196;-77
2022/07/20 13:08:12;;;;;;;8.35;7.25;;;;;;;;;;5028427;28;20204;-78
2022/07/20 13:10:39;;;;;;;10.75;6.50;;;;;;;;;;5025351;28;20181;-76
2022/07/20 13:13:05;;;;;;;12.13;7.70;;;;;;;;;;5026673;28;20211;-77
2022/07/20 13:15:31;;;;;;;9.93;7.40;;;;;;;;;;5025757;28;20441;-76
2022/07/20 13:17:58;;;;;;;10.05;7.47;;;;;;;;;;5033928;28;20183;-77
2022/07/20 13:20:24;;;;;;;7.30;6.60;;;;;;;;;;5027325;28;20190;-77
2022/07/20 13:22:50;;;;;;;8.30;7.18;;;;;;;;;;5027355;28;20292;-77
2022/07/20 13:25:16;;;;;;;8.10;7.43;;;;;;;;;;5012711;28;20206;-79
2022/07/20 13:27:43;;;;;;;11.23;6.90;;;;;;;;;;5034452;28;20185;-80
2022/07/20 13:30:10;;;;;;;9.18;6.97;;;;;;;;;;5038215;28;20623;-84
2022/07/20 13:32:36;;;;;;;7.90;7.13;;;;;;;;;;5031288;28;20199;-82
2022/07/20 13:35:03;;;;;;;7.88;7.18;;;;;;;;;;5038941;28;20174;-82
2022/07/20 13:37:29;;;;;;;8.48;7.70;;;;;;;;;;5033033;28;20182;-82
2022/07/20 13:39:56;;;;;;;10.02;6.93;;;;;;;;;;5038562;28;20198;-82
2022/07/20 13:42:23;;;;;;;8.05;7.25;;;;;;;;;;5034526;28;20305;-80
2022/07/20 13:44:49;;;;;;;8.55;7.35;;;;;;;;;;5037788;28;20186;-81
2022/07/20 13:47:15;;;;;;;9.52;7.63;;;;;;;;;;5036488;28;20256;-81
2022/07/20 13:49:42;;;;;;;8.85;8.00;;;;;;;;;;5032337;28;20221;-82
2022/07/20 13:52:08;;;;;;;12.18;7.65;;;;;;;;;;5035556;28;20218;-80
2022/07/20 13:54:35;;;;;;;8.63;7.68;;;;;;;;;;5032610;28;20352;-79
2022/07/20 13:57:01;;;;;;;9.45;7.30;;;;;;;;;;5032604;28;20266;-79
2022/07/20 13:59:27;;;;;;;8.30;7.60;;;;;;;;;;5033681;28;20562;-79
2022/07/20 14:01:54;;;;;;;8.57;7.40;;;;;;;;;;5031349;28;20220;-80
2022/07/20 14:04:20;;;;;;;9.00;8.13;;;;;;;;;;5026670;28;20213;-80
2022/07/20 14:06:46;;;;;;;9.23;8.00;;;;;;;;;;5031919;28;20715;-80
2022/07/20 14:09:13;;;;;;;9.43;8.48;;;;;;;;;;5028666;28;20281;-80
2022/07/20 14:11:39;;;;;;;9.43;8.63;;;;;;;;;;5028920;28;20292;-80
2022/07/20 14:14:06;;;;;;;8.98;7.70;;;;;;;;;;5030322;28;20181;-77
2022/07/20 14:16:33;;;;;;;8.10;7.45;;;;;;;;;;5028440;28;20198;-78
2022/07/20 14:18:59;;;;;;;8.93;7.80;;;;;;;;;;5028477;28;20250;-81
2022/07/20 14:21:26;;;;;;;10.45;9.25;;;;;;;;;;5008912;28;20213;-80
2022/07/20 14:23:52;;;;;;;9.30;8.40;;;;;;;;;;5031412;28;20545;-77
2022/07/20 14:26:19;;;;;;;10.30;9.00;;;;;;;;;;5031080;28;20201;-77
2022/07/20 14:28:46;;;;;;;10.00;8.40;;;;;;;;;;5036750;28;20285;-77
2022/07/20 14:31:12;;;;;;;11.23;8.00;;;;;;;;;;5035363;28;20179;-77
2022/07/20 14:33:38;;;;;;;9.07;8.20;;;;;;;;;;5036893;28;20198;-73
2022/07/20 14:36:05;;;;;;;13.60;8.48;;;;;;;;;;5030839;28;20184;-75
2022/07/20 14:38:31;;;;;;;9.23;8.40;;;;;;;;;;5032025;28;20183;-76
2022/07/20 14:40:57;;;;;;;9.35;8.55;;;;;;;;;;5031902;28;20192;-77
2022/07/20 14:43:24;;;;;;;11.48;9.18;;;;;;;;;;5028091;28;20203;-80
2022/07/20 14:45:50;;;;;;;10.02;8.75;;;;;;;;;;5030253;28;20200;-77
2022/07/20 14:48:16;;;;;;;9.75;8.70;;;;;;;;;;5030874;28;20649;-76